Time;durP1;ratioP1;P1;durP2;ratioP2;P2;SDS_P1;SDS_P2;PMS_P1;PMS_P2;Temp;Humidity;BMP_temperature;BMP_pressure;BME280_temperature;BME280_humidity;BME280_pressure;Samples;Min_cycle;Max_cycle;Signal;HPM_P1;HPM_P2
2022/10/11 00:01:28;;;;;;;;;;;9.40;99.90;;;;;;5108354;27;35322;-57
2022/10/11 00:03:55;;;;;;;;;;;9.40;99.90;;;;;;5107862;27;38644;-58
2022/10/11 00:06:22;;;;;;;;;;;9.40;99.90;;;;;;5108970;27;38292;-57
2022/10/11 00:08:49;;;;;;;;;;;9.40;99.90;;;;;;5107803;27;41240;-57
2022/10/11 00:11:16;;;;;;;;;;;9.40;99.90;;;;;;5108839;27;36343;-57
2022/10/11 00:13:44;;;;;;;;;;;9.40;99.90;;;;;;5110145;27;40455;-57
2022/10/11 00:16:13;;;;;;;;;;;9.40;99.90;;;;;;5107143;27;38468;-57
2022/10/11 00:18:40;;;;;;;;;;;9.40;99.90;;;;;;5107882;27;37871;-57
2022/10/11 00:21:08;;;;;;;;;;;9.40;99.90;;;;;;5107748;27;37089;-57
2022/10/11 00:23:35;;;;;;;;;;;9.40;99.90;;;;;;5107049;27;38577;-57
2022/10/11 00:26:04;;;;;;;;;;;9.30;99.90;;;;;;5109422;27;38723;-57
2022/10/11 00:28:31;;;;;;;;;;;9.30;99.90;;;;;;5108398;27;38534;-58
2022/10/11 00:30:59;;;;;;;;;;;9.30;99.90;;;;;;5108324;27;37003;-57
2022/10/11 00:33:26;;;;;;;;;;;9.30;99.90;;;;;;5107602;27;36726;-57
2022/10/11 00:35:53;;;;;;;;;;;9.30;99.90;;;;;;5107496;27;38010;-57
2022/10/11 00:38:20;;;;;;;;;;;9.30;99.90;;;;;;5107187;27;38335;-57
2022/10/11 00:40:47;;;;;;;;;;;9.30;99.90;;;;;;5107815;27;36121;-58
2022/10/11 00:43:16;;;;;;;;;;;9.30;99.90;;;;;;5107270;27;38412;-57
2022/10/11 00:46:01;;;;;;;;;;;9.30;99.90;;;;;;5108045;27;40030;-57
2022/10/11 00:48:32;;;;;;;;;;;9.30;99.90;;;;;;5107916;27;37277;-57
2022/10/11 00:51:00;;;;;;;;;;;9.30;99.90;;;;;;5107541;27;36558;-57
2022/10/11 00:53:28;;;;;;;;;;;9.30;99.90;;;;;;5107462;27;38100;-57
2022/10/11 00:55:57;;;;;;;;;;;9.30;99.90;;;;;;5107334;27;39008;-57
2022/10/11 00:58:24;;;;;;;;;;;9.40;99.90;;;;;;5108646;27;38044;-58
2022/10/11 01:00:52;;;;;;;;;;;9.30;99.90;;;;;;5108157;27;34643;-57
2022/10/11 01:03:21;;;;;;;;;;;9.30;99.90;;;;;;5105672;27;37274;-57
2022/10/11 01:05:49;;;;;;;;;;;9.40;99.90;;;;;;5106980;27;41269;-57
2022/10/11 01:08:16;;;;;;;;;;;9.30;99.90;;;;;;5107433;27;37369;-58
2022/10/11 01:10:43;;;;;;;;;;;9.40;99.90;;;;;;5108906;27;36985;-57
2022/10/11 01:13:17;;;;;;;;;;;9.40;99.90;;;;;;5108226;27;36456;-57
2022/10/11 01:15:48;;;;;;;;;;;9.40;99.90;;;;;;5107307;27;40541;-57
2022/10/11 01:18:17;;;;;;;;;;;9.40;99.90;;;;;;5108140;27;38837;-57
2022/10/11 01:20:53;;;;;;;;;;;9.30;99.90;;;;;;5107577;27;36566;-57
2022/10/11 01:23:35;;;;;;;;;;;9.30;99.90;;;;;;5108427;27;38455;-57
2022/10/11 01:26:12;;;;;;;;;;;9.30;99.90;;;;;;5107760;27;40846;-57
2022/10/11 01:28:42;;;;;;;;;;;9.30;99.90;;;;;;5108498;27;38138;-57
2022/10/11 01:31:16;;;;;;;;;;;9.30;99.90;;;;;;5108452;27;37666;-57
2022/10/11 01:33:45;;;;;;;;;;;9.30;99.90;;;;;;5108084;27;37873;-57
2022/10/11 01:36:14;;;;;;;;;;;9.30;99.90;;;;;;5109367;27;36870;-58
2022/10/11 01:38:44;;;;;;;;;;;9.30;99.90;;;;;;5112460;27;38352;-57
2022/10/11 01:41:14;;;;;;;;;;;9.30;99.90;;;;;;5111196;27;37788;-57
2022/10/11 01:43:42;;;;;;;;;;;9.30;99.90;;;;;;5112174;27;38708;-57
2022/10/11 01:46:11;;;;;;;;;;;9.30;99.90;;;;;;5110316;27;39688;-58
2022/10/11 01:48:46;;;;;;;;;;;9.30;99.90;;;;;;5112565;27;36313;-57
2022/10/11 01:51:13;;;;;;;;;;;9.30;99.90;;;;;;5109976;27;36990;-57
2022/10/11 01:53:47;;;;;;;;;;;9.40;99.90;;;;;;5110037;27;36436;-57
2022/10/11 01:56:21;;;;;;;;;;;9.30;99.90;;;;;;5109156;27;38327;-57
2022/10/11 01:58:56;;;;;;;;;;;9.30;99.90;;;;;;5108313;27;37203;-58
2022/10/11 02:01:27;;;;;;;;;;;9.30;99.90;;;;;;5109354;27;37361;-57
2022/10/11 02:03:59;;;;;;;;;;;9.20;99.90;;;;;;5108983;27;37474;-57
2022/10/11 02:06:30;;;;;;;;;;;9.20;99.90;;;;;;5109074;27;38223;-57
2022/10/11 02:09:03;;;;;;;;;;;9.10;99.90;;;;;;5107475;27;38029;-57
2022/10/11 02:11:30;;;;;;;;;;;9.10;99.90;;;;;;5109026;27;36531;-57
2022/10/11 02:14:00;;;;;;;;;;;9.10;99.90;;;;;;5110349;27;37462;-57
2022/10/11 02:16:31;;;;;;;;;;;9.10;99.90;;;;;;5108759;27;37274;-58
2022/10/11 02:18:59;;;;;;;;;;;9.10;99.90;;;;;;5108586;27;37850;-57
2022/10/11 02:21:27;;;;;;;;;;;9.10;99.90;;;;;;5108420;27;37075;-58
2022/10/11 02:23:57;;;;;;;;;;;9.10;99.90;;;;;;5108613;27;37896;-59
2022/10/11 02:26:24;;;;;;;;;;;9.10;99.90;;;;;;5108853;27;36729;-57
2022/10/11 02:28:52;;;;;;;;;;;9.10;99.90;;;;;;5108949;27;37955;-57
2022/10/11 02:31:20;;;;;;;;;;;9.10;99.90;;;;;;5107146;27;36010;-59
2022/10/11 02:33:52;;;;;;;;;;;9.00;99.90;;;;;;5107427;27;37777;-57
2022/10/11 02:36:23;;;;;;;;;;;8.90;99.90;;;;;;5105788;27;39683;-59
2022/10/11 02:38:52;;;;;;;;;;;8.90;99.90;;;;;;5106812;27;37487;-57
2022/10/11 02:41:22;;;;;;;;;;;8.90;99.90;;;;;;5107800;27;36829;-59
2022/10/11 02:43:51;;;;;;;;;;;8.90;99.90;;;;;;5108833;27;37918;-57
2022/10/11 02:46:18;;;;;;;;;;;8.80;99.90;;;;;;5105798;27;37189;-57
2022/10/11 02:48:45;;;;;;;;;;;8.80;99.90;;;;;;5107138;27;38190;-57
2022/10/11 02:51:14;;;;;;;;;;;8.80;99.90;;;;;;5107637;27;35119;-59
2022/10/11 02:53:41;;;;;;;;;;;8.80;99.90;;;;;;5106736;27;37487;-57
2022/10/11 02:56:08;;;;;;;;;;;8.80;99.90;;;;;;5107448;27;38455;-57
2022/10/11 02:58:35;;;;;;;;;;;8.80;99.90;;;;;;5107032;27;38776;-57
2022/10/11 03:01:02;;;;;;;;;;;8.80;99.90;;;;;;5107483;27;35916;-57
2022/10/11 03:03:29;;;;;;;;;;;8.70;99.90;;;;;;5108106;27;38333;-57
2022/10/11 03:05:59;;;;;;;;;;;8.80;99.90;;;;;;5107293;27;37906;-57
2022/10/11 03:08:28;;;;;;;;;;;8.70;99.90;;;;;;5106661;27;37596;-57
2022/10/11 03:10:55;;;;;;;;;;;8.80;99.90;;;;;;5107369;27;36926;-57
2022/10/11 03:13:22;;;;;;;;;;;8.70;99.90;;;;;;5108647;27;38034;-59
2022/10/11 03:15:49;;;;;;;;;;;8.70;99.90;;;;;;5106139;27;38724;-57
2022/10/11 03:18:16;;;;;;;;;;;8.70;99.90;;;;;;5109066;27;37164;-57
2022/10/11 03:20:43;;;;;;;;;;;8.80;99.90;;;;;;5106263;27;37323;-57
2022/10/11 03:23:10;;;;;;;;;;;8.70;99.90;;;;;;5108159;27;36904;-57
2022/10/11 03:25:38;;;;;;;;;;;8.70;99.90;;;;;;5107138;27;38399;-57
2022/10/11 03:28:05;;;;;;;;;;;8.70;99.90;;;;;;5107087;27;38056;-57
2022/10/11 03:30:32;;;;;;;;;;;8.70;99.90;;;;;;5104069;27;35058;-57
2022/10/11 03:32:59;;;;;;;;;;;8.70;99.90;;;;;;5106764;27;37011;-57
2022/10/11 03:35:26;;;;;;;;;;;8.70;99.90;;;;;;5105789;27;38141;-57
2022/10/11 03:37:53;;;;;;;;;;;8.70;99.90;;;;;;5108034;27;36912;-57
2022/10/11 03:40:20;;;;;;;;;;;8.70;99.90;;;;;;5107431;27;35094;-57
2022/10/11 03:42:49;;;;;;;;;;;8.70;99.90;;;;;;5107002;27;37539;-57
2022/10/11 03:45:16;;;;;;;;;;;8.70;99.90;;;;;;5105414;27;39935;-57
2022/10/11 03:47:43;;;;;;;;;;;8.70;99.90;;;;;;5106266;27;37885;-57
2022/10/11 03:50:10;;;;;;;;;;;8.70;99.90;;;;;;5107430;27;36173;-57
2022/10/11 03:52:37;;;;;;;;;;;8.70;99.90;;;;;;5108266;27;37510;-57
2022/10/11 03:55:05;;;;;;;;;;;8.70;99.90;;;;;;5107629;27;39066;-57
2022/10/11 03:57:32;;;;;;;;;;;8.70;99.90;;;;;;5107117;27;37679;-57
2022/10/11 04:00:00;;;;;;;;;;;8.70;99.90;;;;;;5107063;27;36829;-57
2022/10/11 04:02:27;;;;;;;;;;;8.70;99.90;;;;;;5106663;27;37087;-57
2022/10/11 04:04:54;;;;;;;;;;;8.70;99.90;;;;;;5106349;27;38993;-57
2022/10/11 04:07:21;;;;;;;;;;;8.70;99.90;;;;;;5106768;27;37201;-58
2022/10/11 04:09:48;;;;;;;;;;;8.70;99.90;;;;;;5106554;27;36381;-58
2022/10/11 04:12:15;;;;;;;;;;;8.80;99.90;;;;;;5107030;27;37549;-57
2022/10/11 04:14:42;;;;;;;;;;;8.70;99.90;;;;;;5105817;27;39271;-59
2022/10/11 04:17:11;;;;;;;;;;;8.70;99.90;;;;;;5107368;27;37056;-59
2022/10/11 04:19:38;;;;;;;;;;;8.80;99.90;;;;;;5107076;27;37235;-59
2022/10/11 04:22:05;;;;;;;;;;;8.80;99.90;;;;;;5108014;27;37997;-59
2022/10/11 04:24:32;;;;;;;;;;;8.70;99.90;;;;;;5108315;27;41785;-59
2022/10/11 04:26:59;;;;;;;;;;;8.70;99.90;;;;;;5107630;27;38438;-59
2022/10/11 04:29:26;;;;;;;;;;;8.70;99.90;;;;;;5108052;27;35374;-59
2022/10/11 04:31:53;;;;;;;;;;;8.70;99.90;;;;;;5106443;27;37771;-59
2022/10/11 04:34:22;;;;;;;;;;;8.70;99.90;;;;;;5107765;27;37272;-59
2022/10/11 04:36:49;;;;;;;;;;;8.70;99.90;;;;;;5104441;27;38288;-59
2022/10/11 04:39:16;;;;;;;;;;;8.70;99.90;;;;;;5106936;27;36499;-59
2022/10/11 04:41:43;;;;;;;;;;;8.60;99.90;;;;;;5105977;27;36672;-59
2022/10/11 04:44:10;;;;;;;;;;;8.60;99.90;;;;;;5107147;27;39974;-59
2022/10/11 04:46:37;;;;;;;;;;;8.60;99.90;;;;;;5105698;27;38335;-59
2022/10/11 04:49:04;;;;;;;;;;;8.70;99.90;;;;;;5106931;27;36713;-59
2022/10/11 04:51:33;;;;;;;;;;;8.70;99.90;;;;;;5104760;27;36609;-59
2022/10/11 04:54:00;;;;;;;;;;;8.60;99.90;;;;;;5106259;27;39009;-59
2022/10/11 04:56:29;;;;;;;;;;;8.60;99.90;;;;;;5107746;27;38387;-59
2022/10/11 04:58:56;;;;;;;;;;;8.60;99.90;;;;;;5106964;27;35196;-59
2022/10/11 05:01:23;;;;;;;;;;;8.60;99.90;;;;;;5105536;27;37794;-59
2022/10/11 05:03:50;;;;;;;;;;;8.50;99.90;;;;;;5106941;27;38662;-59
2022/10/11 05:06:17;;;;;;;;;;;8.60;99.90;;;;;;5106840;27;39034;-59
2022/10/11 05:08:46;;;;;;;;;;;8.60;99.90;;;;;;5107760;27;35365;-59
2022/10/11 05:11:14;;;;;;;;;;;8.60;99.90;;;;;;5111038;27;37924;-57
2022/10/11 05:13:41;;;;;;;;;;;8.60;99.90;;;;;;5108867;27;38038;-57
2022/10/11 05:16:08;;;;;;;;;;;8.50;99.90;;;;;;5110062;27;37696;-57
2022/10/11 05:18:35;;;;;;;;;;;8.50;99.90;;;;;;5111305;27;35350;-58
2022/10/11 05:21:03;;;;;;;;;;;8.60;99.90;;;;;;5109415;27;37825;-59
2022/10/11 05:23:31;;;;;;;;;;;8.60;99.90;;;;;;5110471;27;38144;-59
2022/10/11 05:26:00;;;;;;;;;;;8.60;99.90;;;;;;5110531;27;37704;-59
2022/10/11 05:28:27;;;;;;;;;;;8.70;99.90;;;;;;5110094;27;38193;-59
2022/10/11 05:30:54;;;;;;;;;;;8.70;99.90;;;;;;5109198;27;36465;-57
2022/10/11 05:33:21;;;;;;;;;;;8.70;99.90;;;;;;5108676;27;38506;-57
2022/10/11 05:35:48;;;;;;;;;;;8.70;99.90;;;;;;5109509;27;36392;-58
2022/10/11 05:38:15;;;;;;;;;;;8.80;99.90;;;;;;5106304;27;36891;-59
2022/10/11 05:40:43;;;;;;;;;;;8.70;99.90;;;;;;5107569;27;37592;-58
2022/10/11 05:43:11;;;;;;;;;;;8.80;99.90;;;;;;5108094;27;37769;-59
2022/10/11 05:45:39;;;;;;;;;;;8.70;99.90;;;;;;5105972;27;37877;-58
2022/10/11 05:48:06;;;;;;;;;;;8.70;99.90;;;;;;5099414;27;37778;-58
2022/10/11 05:50:34;;;;;;;;;;;8.70;99.90;;;;;;5104459;27;36480;-58
2022/10/11 05:53:01;;;;;;;;;;;8.70;99.90;;;;;;5107534;27;37779;-58
2022/10/11 05:55:28;;;;;;;;;;;8.70;99.90;;;;;;5105917;27;38011;-58
2022/10/11 05:57:55;;;;;;;;;;;8.70;99.90;;;;;;5105696;27;35847;-59
2022/10/11 06:00:24;;;;;;;;;;;8.70;99.90;;;;;;5103768;27;37417;-59
2022/10/11 06:02:51;;;;;;;;;;;8.70;99.90;;;;;;5107038;27;38128;-59
2022/10/11 06:05:18;;;;;;;;;;;8.70;99.90;;;;;;5106082;27;39256;-59
2022/10/11 06:07:45;;;;;;;;;;;8.70;99.90;;;;;;5107427;27;36286;-59
2022/10/11 06:10:12;;;;;;;;;;;8.70;99.90;;;;;;5104676;27;38488;-59
2022/10/11 06:12:39;;;;;;;;;;;8.70;99.90;;;;;;5107224;27;38549;-59
2022/10/11 06:15:07;;;;;;;;;;;8.70;99.90;;;;;;5108416;27;36587;-59
2022/10/11 06:17:36;;;;;;;;;;;8.70;99.90;;;;;;5108345;27;35206;-59
2022/10/11 06:20:03;;;;;;;;;;;8.70;99.90;;;;;;5108824;27;36475;-59
2022/10/11 06:22:30;;;;;;;;;;;8.70;99.90;;;;;;5108044;27;38286;-59
2022/10/11 06:24:57;;;;;;;;;;;8.70;99.90;;;;;;5109349;27;36585;-59
2022/10/11 06:27:24;;;;;;;;;;;8.70;99.90;;;;;;5109633;27;36302;-59
2022/10/11 06:29:51;;;;;;;;;;;8.70;99.90;;;;;;5106174;27;37627;-57
2022/10/11 06:32:18;;;;;;;;;;;8.70;99.90;;;;;;5108736;27;38698;-57
2022/10/11 06:34:46;;;;;;;;;;;8.70;99.90;;;;;;5107303;27;36396;-57
2022/10/11 06:37:13;;;;;;;;;;;8.80;99.90;;;;;;5106986;27;35444;-57
2022/10/11 06:39:40;;;;;;;;;;;8.80;99.90;;;;;;5106428;27;38347;-57
2022/10/11 06:42:07;;;;;;;;;;;8.90;99.90;;;;;;5108122;27;37109;-57
2022/10/11 06:44:34;;;;;;;;;;;8.90;99.90;;;;;;5106515;27;39925;-57
2022/10/11 06:47:02;;;;;;;;;;;8.90;99.90;;;;;;5107460;27;36113;-57
2022/10/11 06:49:29;;;;;;;;;;;9.00;99.90;;;;;;5106711;27;39258;-57
2022/10/11 06:51:57;;;;;;;;;;;9.00;99.90;;;;;;5107151;27;38185;-58
2022/10/11 06:54:24;;;;;;;;;;;9.10;99.90;;;;;;5108290;27;37357;-59
2022/10/11 06:56:51;;;;;;;;;;;9.20;99.90;;;;;;5107044;27;37729;-58
2022/10/11 06:59:18;;;;;;;;;;;9.20;99.90;;;;;;5107297;27;37749;-58
2022/10/11 07:01:45;;;;;;;;;;;9.30;99.90;;;;;;5107131;27;37778;-59
2022/10/11 07:04:12;;;;;;;;;;;9.40;99.90;;;;;;5107240;27;37865;-57
2022/10/11 07:06:40;;;;;;;;;;;9.40;99.90;;;;;;5107205;27;37031;-57
2022/10/11 07:09:08;;;;;;;;;;;9.50;99.90;;;;;;5106649;27;38507;-57
2022/10/11 07:11:35;;;;;;;;;;;9.60;99.90;;;;;;5107489;27;38245;-58
2022/10/11 07:14:06;;;;;;;;;;;9.70;99.90;;;;;;5106293;27;37518;-57
2022/10/11 07:16:34;;;;;;;;;;;9.70;99.90;;;;;;5106534;27;36393;-57
2022/10/11 07:19:01;;;;;;;;;;;9.80;99.90;;;;;;5106662;27;38246;-57
2022/10/11 07:21:29;;;;;;;;;;;9.80;99.90;;;;;;5105949;27;37235;-57
2022/10/11 07:23:56;;;;;;;;;;;9.90;99.90;;;;;;5107179;27;36980;-58
2022/10/11 07:26:24;;;;;;;;;;;10.00;99.90;;;;;;5107875;27;38234;-59
2022/10/11 07:28:51;;;;;;;;;;;10.00;99.90;;;;;;5107814;27;38076;-58
2022/10/11 07:31:19;;;;;;;;;;;10.10;99.90;;;;;;5106112;27;37985;-59
2022/10/11 07:33:46;;;;;;;;;;;10.10;99.90;;;;;;5107257;27;37884;-59
2022/10/11 07:36:14;;;;;;;;;;;10.20;99.90;;;;;;5105173;27;36381;-59
2022/10/11 07:38:41;;;;;;;;;;;10.30;99.90;;;;;;5107491;27;38024;-59
2022/10/11 07:41:08;;;;;;;;;;;10.40;99.90;;;;;;5106834;27;39387;-59
2022/10/11 07:43:37;;;;;;;;;;;10.40;99.90;;;;;;5106755;27;36477;-58
2022/10/11 07:46:04;;;;;;;;;;;10.50;99.90;;;;;;5105978;27;34665;-59
2022/10/11 07:48:31;;;;;;;;;;;10.60;99.90;;;;;;5105819;27;38654;-59
2022/10/11 07:51:02;;;;;;;;;;;10.70;99.90;;;;;;5104906;27;39266;-57
2022/10/11 07:53:29;;;;;;;;;;;10.70;99.90;;;;;;5104820;27;36392;-57
2022/10/11 07:55:59;;;;;;;;;;;10.80;99.90;;;;;;5106199;27;36260;-58
2022/10/11 07:58:26;;;;;;;;;;;10.80;99.90;;;;;;5105649;27;38307;-57
2022/10/11 08:00:54;;;;;;;;;;;10.90;99.90;;;;;;5105642;27;41194;-58
2022/10/11 08:03:21;;;;;;;;;;;10.90;99.90;;;;;;5106801;27;38827;-59
2022/10/11 08:05:50;;;;;;;;;;;10.90;99.90;;;;;;5106041;27;35191;-59
2022/10/11 08:08:18;;;;;;;;;;;11.00;99.90;;;;;;5105311;27;38365;-57
2022/10/11 08:10:45;;;;;;;;;;;11.00;99.90;;;;;;5105467;27;38264;-57
2022/10/11 08:13:13;;;;;;;;;;;11.10;99.90;;;;;;5105789;27;37792;-58
2022/10/11 08:15:40;;;;;;;;;;;11.10;99.90;;;;;;5105709;27;35265;-57
2022/10/11 08:18:08;;;;;;;;;;;11.20;99.90;;;;;;5105973;27;38838;-58
2022/10/11 08:20:38;;;;;;;;;;;11.20;99.90;;;;;;5105095;27;39249;-59
2022/10/11 08:23:05;;;;;;;;;;;11.30;99.90;;;;;;5105906;27;37333;-59
2022/10/11 08:25:35;;;;;;;;;;;11.30;99.90;;;;;;5106353;27;37300;-59
2022/10/11 08:28:02;;;;;;;;;;;11.40;99.90;;;;;;5106758;27;38757;-59
2022/10/11 08:30:29;;;;;;;;;;;11.50;99.90;;;;;;5105911;27;38513;-59
2022/10/11 08:32:56;;;;;;;;;;;11.50;99.90;;;;;;5106053;27;36525;-59
2022/10/11 08:35:25;;;;;;;;;;;11.60;99.90;;;;;;5105134;27;36494;-58
2022/10/11 08:37:52;;;;;;;;;;;11.60;99.90;;;;;;5105296;27;37998;-57
2022/10/11 08:40:20;;;;;;;;;;;11.70;99.90;;;;;;5105763;27;38855;-57
2022/10/11 08:42:52;;;;;;;;;;;11.80;99.90;;;;;;5104878;27;37360;-57
2022/10/11 08:45:24;;;;;;;;;;;11.80;99.90;;;;;;5107649;27;36515;-57
2022/10/11 08:48:02;;;;;;;;;;;11.90;99.90;;;;;;5109302;27;38419;-59
2022/10/11 08:50:30;;;;;;;;;;;12.00;99.90;;;;;;5109149;27;38282;-59
2022/10/11 08:52:59;;;;;;;;;;;12.10;99.90;;;;;;5109126;27;38325;-59
2022/10/11 08:55:29;;;;;;;;;;;12.10;99.90;;;;;;5109601;27;36491;-59
2022/10/11 08:57:57;;;;;;;;;;;12.20;99.90;;;;;;5109660;27;38310;-59
2022/10/11 09:00:24;;;;;;;;;;;12.30;99.90;;;;;;5109012;27;39162;-59
2022/10/11 09:02:57;;;;;;;;;;;12.40;99.90;;;;;;5109521;27;37234;-59
2022/10/11 09:05:25;;;;;;;;;;;12.40;99.90;;;;;;5107131;27;36420;-57
2022/10/11 09:07:57;;;;;;;;;;;12.40;99.90;;;;;;5108591;27;37684;-59
2022/10/11 09:10:32;;;;;;;;;;;12.50;99.90;;;;;;5108655;27;37539;-59
2022/10/11 09:13:05;;;;;;;;;;;12.60;99.90;;;;;;5108924;27;37480;-59
2022/10/11 09:15:34;;;;;;;;;;;12.70;99.90;;;;;;5109060;27;36810;-59
2022/10/11 09:18:12;;;;;;;;;;;12.80;99.90;;;;;;5108391;27;37245;-57
2022/10/11 09:20:48;;;;;;;;;;;12.90;99.90;;;;;;5107211;27;36902;-58
2022/10/11 09:23:23;;;;;;;;;;;12.90;99.90;;;;;;5109175;27;37636;-57
2022/10/11 09:25:54;;;;;;;;;;;13.00;99.90;;;;;;5108530;27;37079;-58
2022/10/11 09:28:27;;;;;;;;;;;13.10;99.90;;;;;;5108250;27;38013;-57
2022/10/11 09:30:55;;;;;;;;;;;13.10;99.90;;;;;;5108553;27;40805;-59
2022/10/11 09:33:28;;;;;;;;;;;13.20;99.90;;;;;;5107804;27;37923;-59
2022/10/11 09:35:56;;;;;;;;;;;13.20;99.90;;;;;;5109219;27;37047;-59
2022/10/11 09:38:32;;;;;;;;;;;13.40;99.90;;;;;;5107279;27;37438;-57
2022/10/11 09:41:03;;;;;;;;;;;13.40;99.90;;;;;;5108137;27;39022;-57
2022/10/11 09:43:30;;;;;;;;;;;13.40;99.90;;;;;;5108892;27;37487;-57
2022/10/11 09:45:57;;;;;;;;;;;13.50;99.90;;;;;;5108783;27;36898;-58
2022/10/11 09:48:27;;;;;;;;;;;13.60;99.90;;;;;;5108332;27;38457;-59
2022/10/11 09:50:56;;;;;;;;;;;13.70;99.90;;;;;;5107971;27;38515;-59
2022/10/11 09:53:48;;;;;;;;;;;13.80;99.90;;;;;;5108651;27;37333;-58
2022/10/11 09:56:15;;;;;;;;;;;13.90;99.90;;;;;;5107052;27;35083;-57
2022/10/11 09:58:42;;;;;;;;;;;14.00;99.90;;;;;;5107191;27;38342;-57
2022/10/11 10:01:11;;;;;;;;;;;14.20;99.90;;;;;;5108127;27;38066;-57
2022/10/11 10:03:38;;;;;;;;;;;14.30;99.90;;;;;;5107428;27;36996;-58
2022/10/11 10:06:07;;;;;;;;;;;14.40;99.90;;;;;;5107108;27;37552;-57
2022/10/11 10:08:34;;;;;;;;;;;14.50;99.90;;;;;;5107414;27;41151;-57
2022/10/11 10:11:04;;;;;;;;;;;14.70;99.90;;;;;;5106933;27;38380;-57
2022/10/11 10:13:37;;;;;;;;;;;14.80;99.90;;;;;;5106528;27;38394;-57
2022/10/11 10:16:04;;;;;;;;;;;14.90;99.90;;;;;;5107556;27;35419;-59
2022/10/11 10:18:33;;;;;;;;;;;15.10;99.90;;;;;;5107082;27;39937;-59
2022/10/11 10:21:01;;;;;;;;;;;15.10;99.90;;;;;;5106557;27;37086;-57
2022/10/11 10:23:29;;;;;;;;;;;15.10;99.90;;;;;;5107204;27;37907;-57
2022/10/11 10:26:14;;;;;;;;;;;15.20;99.90;;;;;;5107193;27;37004;-58
2022/10/11 10:28:56;;;;;;;;;;;15.20;99.90;;;;;;5106712;27;37384;-59
2022/10/11 10:31:24;;;;;;;;;;;15.40;99.90;;;;;;5104742;27;38230;-60
2022/10/11 10:33:52;;;;;;;;;;;15.50;99.90;;;;;;5107301;27;37958;-59
2022/10/11 10:36:23;;;;;;;;;;;15.50;99.90;;;;;;5107344;27;36423;-59
2022/10/11 10:38:54;;;;;;;;;;;15.60;99.90;;;;;;5107612;27;36532;-59
2022/10/11 10:41:22;;;;;;;;;;;15.70;99.90;;;;;;5107023;27;39815;-59
2022/10/11 10:43:51;;;;;;;;;;;15.70;99.90;;;;;;5105649;27;38929;-59
2022/10/11 10:46:26;;;;;;;;;;;15.80;99.90;;;;;;5107353;27;36690;-59
2022/10/11 10:48:56;;;;;;;;;;;15.80;99.90;;;;;;5106264;27;37372;-59
2022/10/11 10:51:28;;;;;;;;;;;15.90;99.90;;;;;;5107456;27;38219;-59
2022/10/11 10:53:59;;;;;;;;;;;15.90;99.90;;;;;;5107224;27;38604;-60
2022/10/11 10:56:32;;;;;;;;;;;15.90;99.90;;;;;;5106945;27;36195;-59
2022/10/11 10:59:05;;;;;;;;;;;15.80;99.90;;;;;;5107562;27;37634;-59
2022/10/11 11:01:33;;;;;;;;;;;15.60;99.90;;;;;;5106176;27;39280;-59
2022/10/11 11:04:05;;;;;;;;;;;15.40;99.90;;;;;;5105134;27;37612;-58
2022/10/11 11:06:36;;;;;;;;;;;15.30;99.90;;;;;;5105491;27;37053;-59
2022/10/11 11:09:11;;;;;;;;;;;15.10;99.90;;;;;;5104684;27;38388;-59
2022/10/11 11:11:45;;;;;;;;;;;15.00;99.90;;;;;;5105088;27;39496;-59
2022/10/11 11:14:20;;;;;;;;;;;14.80;99.90;;;;;;5104603;27;37457;-59
2022/10/11 11:16:49;;;;;;;;;;;14.70;99.90;;;;;;5105929;27;37179;-59
2022/10/11 11:19:23;;;;;;;;;;;14.60;99.90;;;;;;5105869;27;38328;-59
2022/10/11 11:21:54;;;;;;;;;;;14.60;99.90;;;;;;5104990;27;39908;-59
2022/10/11 11:24:27;;;;;;;;;;;14.50;99.90;;;;;;5105380;27;38539;-59
2022/10/11 11:26:58;;;;;;;;;;;14.50;99.90;;;;;;5104855;27;36367;-59
2022/10/11 11:29:32;;;;;;;;;;;14.50;99.90;;;;;;5105444;27;38729;-59
2022/10/11 11:32:05;;;;;;;;;;;14.50;99.90;;;;;;5105083;27;38905;-57
2022/10/11 11:34:35;;;;;;;;;;;14.40;99.90;;;;;;5104483;27;38288;-57
2022/10/11 11:37:04;;;;;;;;;;;14.40;99.90;;;;;;5104152;27;37337;-57
2022/10/11 11:39:32;;;;;;;;;;;14.30;99.90;;;;;;5105173;27;38050;-57
2022/10/11 11:42:04;;;;;;;;;;;14.30;99.90;;;;;;5105099;27;38940;-58
2022/10/11 11:44:32;;;;;;;;;;;14.20;99.90;;;;;;5105630;27;38174;-58
2022/10/11 11:47:01;;;;;;;;;;;14.20;99.90;;;;;;5104146;27;36463;-57
2022/10/11 11:49:30;;;;;;;;;;;14.10;99.90;;;;;;5104347;27;38095;-57
2022/10/11 11:51:58;;;;;;;;;;;14.10;99.90;;;;;;5105647;27;39159;-58
2022/10/11 11:54:30;;;;;;;;;;;14.00;99.90;;;;;;5105993;27;38306;-57
2022/10/11 11:57:00;;;;;;;;;;;14.00;99.90;;;;;;5106157;27;36145;-59
2022/10/11 11:59:31;;;;;;;;;;;14.00;99.90;;;;;;5105817;27;39723;-59
2022/10/11 12:02:01;;;;;;;;;;;14.00;99.90;;;;;;5105532;27;37000;-59
2022/10/11 12:04:36;;;;;;;;;;;14.00;99.90;;;;;;5106419;27;38187;-59
2022/10/11 12:07:05;;;;;;;;;;;13.90;99.90;;;;;;5105451;27;36305;-59
2022/10/11 12:09:33;;;;;;;;;;;14.00;99.90;;;;;;5104995;27;37514;-59
2022/10/11 12:12:01;;;;;;;;;;;14.00;99.90;;;;;;5105946;27;39059;-59
2022/10/11 12:14:37;;;;;;;;;;;14.00;99.90;;;;;;5105453;27;38952;-59
2022/10/11 12:17:12;;;;;;;;;;;14.00;99.90;;;;;;5105084;27;36204;-59
2022/10/11 12:19:40;;;;;;;;;;;14.00;99.90;;;;;;5103221;27;36570;-59
2022/10/11 12:22:18;;;;;;;;;;;14.00;99.90;;;;;;5106749;27;37785;-59
2022/10/11 12:24:55;;;;;;;;;;;14.00;99.90;;;;;;5105538;27;37474;-59
2022/10/11 12:27:38;;;;;;;;;;;13.90;99.90;;;;;;5104401;27;36528;-59
2022/10/11 12:30:28;;;;;;;;;;;14.00;99.90;;;;;;5104649;27;39096;-59
2022/10/11 12:33:05;;;;;;;;;;;13.90;99.90;;;;;;5103804;27;39018;-58
2022/10/11 12:35:41;;;;;;;;;;;14.00;99.90;;;;;;5103559;27;37700;-57
2022/10/11 12:38:14;;;;;;;;;;;14.10;99.90;;;;;;5104478;27;37003;-58
2022/10/11 12:40:42;;;;;;;;;;;14.10;99.90;;;;;;5105290;27;37980;-59
2022/10/11 12:43:11;;;;;;;;;;;14.10;99.90;;;;;;5103899;27;38570;-59
2022/10/11 12:45:40;;;;;;;;;;;14.10;99.90;;;;;;5104822;27;37732;-59
2022/10/11 12:48:16;;;;;;;;;;;14.10;99.90;;;;;;5102397;27;36422;-59
2022/10/11 12:50:50;;;;;;;;;;;14.00;99.90;;;;;;5104464;27;36453;-59
2022/10/11 12:53:21;;;;;;;;;;;14.00;99.90;;;;;;5105293;27;37840;-59
2022/10/11 12:55:52;;;;;;;;;;;14.00;99.90;;;;;;5104641;27;38142;-59
2022/10/11 12:58:23;;;;;;;;;;;13.90;99.90;;;;;;5104077;27;36208;-59
2022/10/11 13:01:11;;;;;;;;;;;13.90;99.90;;;;;;5104588;27;37946;-57
2022/10/11 13:03:40;;;;;;;;;;;13.90;99.90;;;;;;5099142;27;38882;-57
2022/10/11 13:06:12;;;;;;;;;;;13.80;99.90;;;;;;5104600;27;36584;-57
2022/10/11 13:08:40;;;;;;;;;;;13.80;99.90;;;;;;5103328;27;36164;-58
2022/10/11 13:11:09;;;;;;;;;;;13.80;99.90;;;;;;5104118;27;36383;-59
2022/10/11 13:13:38;;;;;;;;;;;13.80;99.90;;;;;;5104217;27;37234;-59
2022/10/11 13:16:08;;;;;;;;;;;13.80;99.90;;;;;;5105237;27;38624;-59
2022/10/11 13:18:35;;;;;;;;;;;13.80;99.90;;;;;;5104967;27;36878;-58
2022/10/11 13:21:14;;;;;;;;;;;13.90;99.90;;;;;;5104354;27;37918;-59
2022/10/11 13:23:41;;;;;;;;;;;13.90;99.90;;;;;;5104545;27;39866;-59
2022/10/11 13:26:08;;;;;;;;;;;13.90;99.90;;;;;;5104263;27;37907;-57
2022/10/11 13:28:35;;;;;;;;;;;13.90;99.90;;;;;;5105493;27;36988;-59
2022/10/11 13:31:03;;;;;;;;;;;14.00;99.90;;;;;;5106012;27;37807;-59
2022/10/11 13:33:31;;;;;;;;;;;14.00;99.90;;;;;;5107326;27;37082;-59
2022/10/11 13:35:59;;;;;;;;;;;14.00;99.90;;;;;;5107289;27;36839;-59
2022/10/11 13:38:28;;;;;;;;;;;14.10;99.90;;;;;;5107988;27;36413;-59
2022/10/11 13:40:56;;;;;;;;;;;14.10;99.90;;;;;;5107918;27;38141;-59
2022/10/11 13:43:26;;;;;;;;;;;14.10;99.90;;;;;;5107755;27;37247;-59
2022/10/11 13:45:53;;;;;;;;;;;14.20;99.90;;;;;;5107718;27;37454;-57
2022/10/11 13:48:20;;;;;;;;;;;14.20;99.90;;;;;;5106713;27;37071;-58
2022/10/11 13:51:02;;;;;;;;;;;14.30;99.90;;;;;;5108253;27;37620;-57
2022/10/11 13:53:30;;;;;;;;;;;14.30;99.90;;;;;;5106950;27;41184;-57
2022/10/11 13:55:59;;;;;;;;;;;14.30;99.90;;;;;;5107564;27;37216;-58
2022/10/11 13:58:28;;;;;;;;;;;14.40;99.90;;;;;;5107711;27;35947;-59
2022/10/11 14:00:55;;;;;;;;;;;14.40;99.90;;;;;;5106528;27;36380;-57
2022/10/11 14:03:24;;;;;;;;;;;14.40;99.90;;;;;;5107213;27;38407;-59
2022/10/11 14:05:53;;;;;;;;;;;14.40;99.90;;;;;;5106785;27;38594;-59
2022/10/11 14:08:23;;;;;;;;;;;14.30;99.90;;;;;;5107642;27;35935;-59
2022/10/11 14:10:51;;;;;;;;;;;14.30;99.90;;;;;;5107188;27;39313;-58
2022/10/11 14:13:23;;;;;;;;;;;14.30;99.90;;;;;;5107576;27;38971;-59
2022/10/11 14:16:00;;;;;;;;;;;14.30;99.90;;;;;;5106626;27;37838;-59
2022/10/11 14:18:44;;;;;;;;;;;14.30;99.90;;;;;;5105821;27;36956;-59
2022/10/11 14:21:32;;;;;;;;;;;14.30;99.90;;;;;;5106649;27;39158;-59
2022/10/11 14:24:00;;;;;;;;;;;14.30;99.90;;;;;;5100582;27;39924;-59
2022/10/11 14:26:32;;;;;;;;;;;14.30;99.90;;;;;;5107287;27;38299;-59
2022/10/11 14:29:00;;;;;;;;;;;14.30;99.90;;;;;;5106601;27;36884;-59
2022/10/11 14:31:27;;;;;;;;;;;14.30;99.90;;;;;;5107138;27;39559;-57
2022/10/11 14:33:55;;;;;;;;;;;14.30;99.90;;;;;;5106805;27;38258;-59
2022/10/11 14:36:22;;;;;;;;;;;14.30;99.90;;;;;;5106338;27;37367;-59